createdAt,value
2023-03-02T00:04:37.228Z,39.70
2023-03-02T00:14:38.793Z,38.83
2023-03-02T00:24:40.218Z,38.66
2023-03-02T00:34:41.609Z,38.82
2023-03-02T00:44:43.240Z,38.81
2023-03-02T00:54:44.817Z,38.48
2023-03-02T01:04:46.892Z,37.98
2023-03-02T01:14:48.619Z,37.73
2023-03-02T01:24:50.127Z,37.54
2023-03-02T01:34:51.523Z,37.73
2023-03-02T01:44:57.070Z,38.02
2023-03-02T01:54:59.098Z,38.18
2023-03-02T02:05:00.464Z,38.09
2023-03-02T02:15:02.152Z,38.07
2023-03-02T02:25:05.683Z,38.02
2023-03-02T02:35:16.198Z,38.03
2023-03-02T02:45:22.685Z,37.89
2023-03-02T02:55:24.109Z,37.98
2023-03-02T03:05:25.504Z,37.93
2023-03-02T03:15:27.032Z,37.66
2023-03-02T03:25:28.424Z,38.03
2023-03-02T03:35:29.812Z,38.28
2023-03-02T03:45:31.236Z,38.55
2023-03-02T03:55:32.618Z,38.56
2023-03-02T04:05:34.141Z,38.57
2023-03-02T04:15:35.632Z,38.65
2023-03-02T04:25:37.176Z,39.25
2023-03-02T04:35:38.713Z,39.51
2023-03-02T04:45:40.526Z,39.31
2023-03-02T04:55:41.906Z,39.09
2023-03-02T05:05:43.291Z,38.46
2023-03-02T05:15:44.863Z,38.60
2023-03-02T05:25:46.257Z,38.41
2023-03-02T05:35:47.744Z,38.21
2023-03-02T05:45:49.325Z,38.08
2023-03-02T05:55:50.738Z,37.66
2023-03-02T06:05:52.278Z,37.73
2023-03-02T06:15:53.678Z,37.81
2023-03-02T06:25:55.676Z,37.68
2023-03-02T06:35:57.216Z,37.95
2023-03-02T06:46:00.722Z,37.93
2023-03-02T06:56:02.349Z,37.99
2023-03-02T07:06:04.049Z,37.95
2023-03-02T07:16:10.062Z,37.72
2023-03-02T07:26:11.537Z,36.88
2023-03-02T07:36:12.944Z,36.19
2023-03-02T07:46:14.432Z,35.63
2023-03-02T07:56:15.935Z,34.97
2023-03-02T08:06:17.531Z,34.43
2023-03-02T08:16:18.922Z,33.92
2023-03-02T08:26:20.506Z,33.48
2023-03-02T08:36:22.228Z,32.85
2023-03-02T08:46:23.882Z,32.55
2023-03-02T08:56:30.602Z,32.21
2023-03-02T09:06:33.635Z,31.99
2023-03-02T09:16:35.026Z,31.59
2023-03-02T09:26:38.615Z,31.28
2023-03-02T09:36:39.989Z,30.62
2023-03-02T09:46:48.010Z,29.91
2023-03-02T09:56:57.630Z,27.60
2023-03-02T10:07:05.717Z,25.45
2023-03-02T10:17:44.711Z,29.39
2023-03-02T10:27:55.892Z,30.88
2023-03-02T10:38:00.274Z,31.51
2023-03-02T10:48:05.097Z,32.04
2023-03-02T10:58:16.780Z,32.40
2023-03-02T11:08:20.074Z,32.50
2023-03-02T11:18:41.655Z,32.69
2023-03-02T11:28:47.968Z,33.07
2023-03-02T11:38:51.480Z,32.92
2023-03-02T11:48:54.807Z,33.35
2023-03-02T11:58:59.082Z,33.13
2023-03-02T12:09:33.084Z,33.73
2023-03-02T12:19:42.887Z,33.89
2023-03-02T12:30:11.252Z,34.14
2023-03-02T12:40:34.177Z,34.14
2023-03-02T12:50:37.050Z,34.06
2023-03-02T13:00:38.446Z,34.27
2023-03-02T13:10:44.150Z,34.25
2023-03-02T13:20:46.298Z,34.40
2023-03-02T13:30:48.963Z,34.06
2023-03-02T13:40:51.758Z,34.41
2023-03-02T13:50:57.609Z,34.28
2023-03-02T14:00:59.073Z,33.73
2023-03-02T14:11:01.079Z,34.45
2023-03-02T14:21:02.570Z,34.86
2023-03-02T14:31:04.039Z,33.94
2023-03-02T14:41:05.554Z,34.79
2023-03-02T14:51:18.751Z,34.43
2023-03-02T15:01:20.433Z,34.67
2023-03-02T15:11:21.905Z,35.00
2023-03-02T15:21:24.097Z,35.03
2023-03-02T15:31:27.522Z,35.24
2023-03-02T15:41:29.073Z,35.06
2023-03-02T15:51:30.444Z,35.59
2023-03-02T16:01:31.956Z,35.18
2023-03-02T16:11:33.379Z,35.59
2023-03-02T16:21:34.879Z,35.23
2023-03-02T16:31:37.763Z,36.02
2023-03-02T16:41:40.176Z,35.04
2023-03-02T16:51:42.474Z,35.70
2023-03-02T17:01:43.925Z,36.20
2023-03-02T17:11:45.483Z,36.04
2023-03-02T17:21:47.070Z,36.07
2023-03-02T17:31:48.454Z,36.43
2023-03-02T17:41:49.988Z,36.72
2023-03-02T17:51:51.504Z,36.97
2023-03-02T18:01:52.866Z,36.97
2023-03-02T18:11:54.254Z,37.33
2023-03-02T18:21:55.645Z,37.06
2023-03-02T18:31:57.061Z,37.45
2023-03-02T18:41:59.223Z,37.66
2023-03-02T18:52:05.582Z,37.87
2023-03-02T19:02:09.883Z,37.90
2023-03-02T19:12:11.282Z,38.11
2023-03-02T19:22:12.670Z,38.16
2023-03-02T19:32:14.636Z,38.39
2023-03-02T19:42:16.090Z,38.19
2023-03-02T19:52:17.642Z,38.21
2023-03-02T20:02:19.717Z,38.26
2023-03-02T20:12:21.170Z,38.42
2023-03-02T20:22:25.789Z,38.45
2023-03-02T20:32:27.217Z,38.64
2023-03-02T20:42:31.218Z,38.69
2023-03-02T20:52:32.617Z,38.65
2023-03-02T21:02:34.171Z,38.81
2023-03-02T21:12:35.811Z,38.81
2023-03-02T21:22:37.322Z,38.95
2023-03-02T21:32:38.707Z,38.86
2023-03-02T21:42:40.304Z,39.07
2023-03-02T21:52:41.848Z,38.98
2023-03-02T22:02:43.413Z,39.14
2023-03-02T22:12:44.997Z,39.21
2023-03-02T22:22:47.589Z,39.29
2023-03-02T22:32:49.067Z,39.38
2023-03-02T22:42:51.813Z,39.44
2023-03-02T22:52:53.810Z,39.65
2023-03-02T23:02:55.205Z,39.48
2023-03-02T23:12:56.594Z,39.11
2023-03-02T23:22:57.956Z,38.67
2023-03-02T23:32:59.377Z,38.54
2023-03-02T23:43:00.830Z,38.40
2023-03-02T23:53:02.205Z,38.24
